Aérodrome :
LOGIN :

S'inscrire | Disclaimer

   EN    FR    IT 

 










Légende :    VFR   VFR Marginal   IFR   IFR Intensif   IFR Très Intensif
Visi : 
Plafond : 
>= 8 km
>= 3000ft
5 à 8 km
1000 à 3000 ft
1500m à 5 km
500 à 1000 ft
800 à 1500m
200 à 500 ft
< 800m
< 200 ft
Symboles :   Orages  Brouillard  Fortes neiges  Fortes précipitations  Vent > 20 kt
SIGMETs :   Divers  Orages  Givrage  Turbulence  Onde Orograph.  Cendres Volcan.







- Altitude de l'aérodrome : 20 ft


EBFN - Koksijde

DERNIER METAR :
  • 242025Z AUTO 02004KT 9999 FEW200/// 14/08 Q1025 BLU

METARs EXPIRÉS :
  • 241955Z AUTO 02006KT 9999 FEW059/// 14/09 Q1025 BLU
  • 241925Z AUTO 04004KT 9999 BKN060/// 15/10 Q1025 BLU
  • 241825Z AUTO 03007KT 9999 OVC060/// 16/10 Q1025 BLU
  • 241755Z AUTO 02010KT 9999 BKN057/// 16/11 Q1025 BLU

TAF TAF EBFN
Valide du 24 à 19h jusqu'au 25 à 07h UTC


241541Z 2419/2507 02006G18KT 9999 SCT015 BKN100
TEMPO 2419/2507 36006KT SCT025
TEMPO 2501/2504 01004KT 7000 BKN009
Pas de NOTAMs connus pour ce terrain.



MET'MAP, la Météo Aéronautique d'un coup d'oeil ! - Copyright ORBIFLY Décembre 2007 - Disclaimer

ORBIFLY MET'MAP TEAM :

Programmation & Développement : Alexandra Zaïnal
Conception & Développement : Baudouin d'Aumeries
Co-Programmation & Développement : Marc-Olivier Méhu
Soutien technique & logistique : Manuel Goepfert

Contact : metmap@orbifly.com




SOURCES & CREDITS :

   NOAA